Paguate, NM (87040)

6:35 AM MST on December 21, 2014 (GMT -0700)
Old Laguna Sub | Change Station
CLOSE
Current Station
Personal Weather Station
Location: New Mexico, NM
Elevation: 5820 ft
Nearby Weather Stations

Elev 5820 ft 35.05 °N, 107.37 °W | Updated 3 minutes ago

Overcast
Overcast
23.4 °F
Feels Like 18 °F
N
4.0
Wind Variable Wind from NNE
Gusts 4.8 mph

Today
High -- | Low -- °F
--% Chance of Precip.
Yesterday
High -- | Low -- °F
Precip. -- in
7:14 AM 5:01 PM
Waning Crescent, 0% visible
Pressure 30.07 in
Visibility 10.0 miles
Clouds Overcast 5000 ft
Windchill 18 °F
Dew Point 19 °F
Humidity 83%
Rainfall 0.00 in
Snow Depth Not available.
UV 0 out of 12
Pollen 2.30 out of 12
Air Quality Not available.
Flu Activity Not available.
METAR KGNT 211315Z AUTO 31009G14KT 10SM OVC050 00/M03 A3007 RMK AO2 T10051035

More Conditions Fewer Conditions

Pressure 30.07 in
Visibility 10.0 miles
Clouds Overcast 5000 ft
Windchill 18 °F
Dew Point 19 °F
Humidity 83%
Rainfall 0.00 in
Snow Depth Not available.
UV 0 out of 12
Pollen 2.30 out of 12
Air Quality Not available.
Flu Activity Not available.
METAR KGNT 211315Z AUTO 31009G14KT 10SM OVC050 00/M03 A3007 RMK AO2 T10051035

More Conditions Fewer Conditions

10-Day Weather Forecast

Almanac

Astronomy

Dec. 21, 2014 Rise Set
Actual Time
Civil Twilight
Nautical Twilight
Astronomical Twilight
Moon
Length of Visible Light
Length of Day
Tomorrow will be .
, % of the Moon is Illuminated

Today's Extremes

State Highs State Lows

Community

WunderPhotos

Upload Photos

1,779,386 photos uploaded!

WunderBlogs® & News

Nearby

Air Quality

  Air Quality AQ Index Pollutant
Not available.

Snow Depth

Station Depth Elevation

Earthquake Activity

City Distance Mag. Time & Date
Minimum magnitude displayed is 2.5.

Coastal Water Temperatures

Place Temperature

Nearby Weather Stations